sensor_id;sensor_type;location;lat;lon;timestamp;P1;durP1;ratioP1;P2;durP2;ratioP2
66727;SDS011;53641;44.274;19.890;2022-09-29T00:02:00;15.10;;;10.68;;
66727;SDS011;53641;44.274;19.890;2022-09-29T00:04:26;15.02;;;9.20;;
66727;SDS011;53641;44.274;19.890;2022-09-29T00:06:52;16.58;;;9.70;;
66727;SDS011;53641;44.274;19.890;2022-09-29T00:09:17;18.45;;;10.48;;
66727;SDS011;53641;44.274;19.890;2022-09-29T00:11:43;15.02;;;8.50;;
66727;SDS011;53641;44.274;19.890;2022-09-29T00:14:09;14.35;;;8.52;;
66727;SDS011;53641;44.274;19.890;2022-09-29T00:16:34;15.32;;;8.70;;
66727;SDS011;53641;44.274;19.890;2022-09-29T00:19:00;13.90;;;9.43;;
66727;SDS011;53641;44.274;19.890;2022-09-29T00:21:26;16.25;;;8.45;;
66727;SDS011;53641;44.274;19.890;2022-09-29T00:23:52;17.33;;;7.50;;
66727;SDS011;53641;44.274;19.890;2022-09-29T00:26:19;18.63;;;8.10;;
66727;SDS011;53641;44.274;19.890;2022-09-29T00:28:48;18.20;;;8.23;;
66727;SDS011;53641;44.274;19.890;2022-09-29T00:33:43;16.58;;;7.78;;
66727;SDS011;53641;44.274;19.890;2022-09-29T00:36:10;16.63;;;7.22;;
66727;SDS011;53641;44.274;19.890;2022-09-29T00:38:38;20.25;;;7.15;;
66727;SDS011;53641;44.274;19.890;2022-09-29T00:41:05;16.92;;;7.68;;
66727;SDS011;53641;44.274;19.890;2022-09-29T00:43:46;13.63;;;7.10;;
66727;SDS011;53641;44.274;19.890;2022-09-29T00:46:14;14.73;;;6.95;;
66727;SDS011;53641;44.274;19.890;2022-09-29T00:48:44;16.60;;;7.18;;
66727;SDS011;53641;44.274;19.890;2022-09-29T00:51:11;16.85;;;7.60;;
66727;SDS011;53641;44.274;19.890;2022-09-29T00:53:38;17.02;;;7.35;;
66727;SDS011;53641;44.274;19.890;2022-09-29T00:56:06;15.63;;;6.97;;
66727;SDS011;53641;44.274;19.890;2022-09-29T00:58:37;21.67;;;6.18;;
66727;SDS011;53641;44.274;19.890;2022-09-29T01:01:07;13.38;;;6.68;;
66727;SDS011;53641;44.274;19.890;2022-09-29T01:03:41;14.20;;;7.28;;
66727;SDS011;53641;44.274;19.890;2022-09-29T01:06:19;13.48;;;7.88;;
66727;SDS011;53641;44.274;19.890;2022-09-29T01:08:50;16.48;;;7.53;;
66727;SDS011;53641;44.274;19.890;2022-09-29T01:11:23;12.52;;;7.20;;
66727;SDS011;53641;44.274;19.890;2022-09-29T01:13:49;14.02;;;7.20;;
66727;SDS011;53641;44.274;19.890;2022-09-29T01:16:17;15.13;;;7.45;;
66727;SDS011;53641;44.274;19.890;2022-09-29T01:18:42;11.60;;;7.07;;
66727;SDS011;53641;44.274;19.890;2022-09-29T01:21:33;15.88;;;9.10;;
66727;SDS011;53641;44.274;19.890;2022-09-29T01:24:23;16.55;;;8.60;;
66727;SDS011;53641;44.274;19.890;2022-09-29T01:27:04;20.25;;;9.80;;
66727;SDS011;53641;44.274;19.890;2022-09-29T01:29:37;14.00;;;8.45;;
66727;SDS011;53641;44.274;19.890;2022-09-29T01:32:28;18.55;;;9.38;;
66727;SDS011;53641;44.274;19.890;2022-09-29T01:35:41;13.73;;;8.45;;
66727;SDS011;53641;44.274;19.890;2022-09-29T01:38:41;16.98;;;8.30;;
66727;SDS011;53641;44.274;19.890;2022-09-29T01:42:28;16.10;;;8.30;;
66727;SDS011;53641;44.274;19.890;2022-09-29T01:44:23;11.38;;;7.32;;
66727;SDS011;53641;44.274;19.890;2022-09-29T01:46:57;13.52;;;8.00;;
66727;SDS011;53641;44.274;19.890;2022-09-29T01:49:28;16.95;;;7.53;;
66727;SDS011;53641;44.274;19.890;2022-09-29T01:52:00;15.73;;;7.95;;
66727;SDS011;53641;44.274;19.890;2022-09-29T01:54:41;15.07;;;7.82;;
66727;SDS011;53641;44.274;19.890;2022-09-29T01:57:10;15.88;;;7.80;;
66727;SDS011;53641;44.274;19.890;2022-09-29T01:59:57;18.67;;;8.35;;
66727;SDS011;53641;44.274;19.890;2022-09-29T02:02:31;20.08;;;8.93;;
66727;SDS011;53641;44.274;19.890;2022-09-29T02:05:03;14.88;;;7.85;;
66727;SDS011;53641;44.274;19.890;2022-09-29T02:07:36;15.55;;;8.23;;
66727;SDS011;53641;44.274;19.890;2022-09-29T02:10:12;14.23;;;7.05;;
66727;SDS011;53641;44.274;19.890;2022-09-29T02:12:46;13.45;;;6.32;;
66727;SDS011;53641;44.274;19.890;2022-09-29T02:15:16;12.77;;;5.85;;
66727;SDS011;53641;44.274;19.890;2022-09-29T02:17:47;14.50;;;4.80;;
66727;SDS011;53641;44.274;19.890;2022-09-29T02:20:17;11.18;;;5.15;;
66727;SDS011;53641;44.274;19.890;2022-09-29T02:22:43;12.20;;;5.38;;
66727;SDS011;53641;44.274;19.890;2022-09-29T02:25:09;10.23;;;4.72;;
66727;SDS011;53641;44.274;19.890;2022-09-29T02:27:38;9.38;;;4.30;;
66727;SDS011;53641;44.274;19.890;2022-09-29T02:30:04;10.95;;;4.32;;
66727;SDS011;53641;44.274;19.890;2022-09-29T02:32:31;8.73;;;4.38;;
66727;SDS011;53641;44.274;19.890;2022-09-29T02:34:59;9.60;;;4.45;;
66727;SDS011;53641;44.274;19.890;2022-09-29T02:37:31;7.90;;;3.90;;
66727;SDS011;53641;44.274;19.890;2022-09-29T02:40:27;9.93;;;4.32;;
66727;SDS011;53641;44.274;19.890;2022-09-29T02:43:22;11.88;;;4.93;;
66727;SDS011;53641;44.274;19.890;2022-09-29T02:46:40;11.18;;;5.50;;
66727;SDS011;53641;44.274;19.890;2022-09-29T02:50:15;9.95;;;4.63;;
66727;SDS011;53641;44.274;19.890;2022-09-29T02:51:47;12.18;;;5.22;;
66727;SDS011;53641;44.274;19.890;2022-09-29T02:54:32;10.50;;;4.53;;
66727;SDS011;53641;44.274;19.890;2022-09-29T02:58:06;11.15;;;4.70;;
66727;SDS011;53641;44.274;19.890;2022-09-29T03:00:03;10.85;;;4.88;;
66727;SDS011;53641;44.274;19.890;2022-09-29T03:02:33;10.48;;;4.68;;
66727;SDS011;53641;44.274;19.890;2022-09-29T03:04:59;9.13;;;5.28;;
66727;SDS011;53641;44.274;19.890;2022-09-29T03:07:26;13.07;;;5.47;;
66727;SDS011;53641;44.274;19.890;2022-09-29T03:09:52;10.60;;;4.57;;
66727;SDS011;53641;44.274;19.890;2022-09-29T03:12:17;8.73;;;4.28;;
66727;SDS011;53641;44.274;19.890;2022-09-29T03:14:43;9.07;;;4.78;;
66727;SDS011;53641;44.274;19.890;2022-09-29T03:17:09;9.10;;;4.35;;
66727;SDS011;53641;44.274;19.890;2022-09-29T03:19:35;11.45;;;4.10;;
66727;SDS011;53641;44.274;19.890;2022-09-29T03:22:00;14.60;;;3.83;;
66727;SDS011;53641;44.274;19.890;2022-09-29T03:24:27;14.55;;;4.35;;
66727;SDS011;53641;44.274;19.890;2022-09-29T03:26:53;7.55;;;3.72;;
66727;SDS011;53641;44.274;19.890;2022-09-29T03:29:19;13.02;;;3.97;;
66727;SDS011;53641;44.274;19.890;2022-09-29T03:31:45;13.98;;;4.57;;
66727;SDS011;53641;44.274;19.890;2022-09-29T03:34:11;13.15;;;4.43;;
66727;SDS011;53641;44.274;19.890;2022-09-29T03:36:36;10.85;;;4.03;;
66727;SDS011;53641;44.274;19.890;2022-09-29T03:39:02;7.65;;;3.33;;
66727;SDS011;53641;44.274;19.890;2022-09-29T03:41:28;8.75;;;3.65;;
66727;SDS011;53641;44.274;19.890;2022-09-29T03:43:54;7.57;;;4.00;;
66727;SDS011;53641;44.274;19.890;2022-09-29T03:46:19;13.15;;;4.45;;
66727;SDS011;53641;44.274;19.890;2022-09-29T03:48:45;11.52;;;4.38;;
66727;SDS011;53641;44.274;19.890;2022-09-29T03:51:11;8.20;;;4.10;;
66727;SDS011;53641;44.274;19.890;2022-09-29T03:53:37;10.57;;;4.88;;
66727;SDS011;53641;44.274;19.890;2022-09-29T03:56:02;17.85;;;5.18;;
66727;SDS011;53641;44.274;19.890;2022-09-29T03:58:28;13.32;;;4.93;;
66727;SDS011;53641;44.274;19.890;2022-09-29T04:00:54;25.40;;;5.30;;
66727;SDS011;53641;44.274;19.890;2022-09-29T04:03:20;12.38;;;5.40;;
66727;SDS011;53641;44.274;19.890;2022-09-29T04:05:46;15.05;;;4.40;;
66727;SDS011;53641;44.274;19.890;2022-09-29T04:08:12;17.88;;;4.65;;
66727;SDS011;53641;44.274;19.890;2022-09-29T04:10:38;12.82;;;4.03;;
66727;SDS011;53641;44.274;19.890;2022-09-29T04:13:05;14.18;;;4.55;;
66727;SDS011;53641;44.274;19.890;2022-09-29T04:15:31;16.60;;;4.97;;
66727;SDS011;53641;44.274;19.890;2022-09-29T04:17:58;7.65;;;4.07;;
66727;SDS011;53641;44.274;19.890;2022-09-29T04:20:24;7.90;;;3.85;;
66727;SDS011;53641;44.274;19.890;2022-09-29T04:22:50;14.98;;;4.38;;
66727;SDS011;53641;44.274;19.890;2022-09-29T04:25:15;11.98;;;4.30;;
66727;SDS011;53641;44.274;19.890;2022-09-29T04:27:41;8.93;;;4.20;;
66727;SDS011;53641;44.274;19.890;2022-09-29T04:30:07;10.48;;;3.67;;
66727;SDS011;53641;44.274;19.890;2022-09-29T04:32:34;8.27;;;4.10;;
66727;SDS011;53641;44.274;19.890;2022-09-29T04:35:00;10.98;;;4.00;;
66727;SDS011;53641;44.274;19.890;2022-09-29T04:37:26;11.85;;;3.85;;
66727;SDS011;53641;44.274;19.890;2022-09-29T04:39:52;6.72;;;3.28;;
66727;SDS011;53641;44.274;19.890;2022-09-29T04:42:18;8.15;;;2.97;;
66727;SDS011;53641;44.274;19.890;2022-09-29T04:44:44;13.23;;;3.60;;
66727;SDS011;53641;44.274;19.890;2022-09-29T04:47:10;7.13;;;3.08;;
66727;SDS011;53641;44.274;19.890;2022-09-29T04:49:36;9.82;;;3.45;;
66727;SDS011;53641;44.274;19.890;2022-09-29T04:52:02;14.65;;;5.18;;
66727;SDS011;53641;44.274;19.890;2022-09-29T04:54:31;10.90;;;5.30;;
66727;SDS011;53641;44.274;19.890;2022-09-29T04:56:58;15.97;;;6.27;;
66727;SDS011;53641;44.274;19.890;2022-09-29T04:59:25;20.88;;;6.60;;
66727;SDS011;53641;44.274;19.890;2022-09-29T05:01:51;15.40;;;6.43;;
66727;SDS011;53641;44.274;19.890;2022-09-29T05:04:17;13.88;;;6.13;;
66727;SDS011;53641;44.274;19.890;2022-09-29T05:06:43;17.02;;;6.40;;
66727;SDS011;53641;44.274;19.890;2022-09-29T05:09:09;16.52;;;5.40;;
66727;SDS011;53641;44.274;19.890;2022-09-29T05:11:35;15.13;;;5.82;;
66727;SDS011;53641;44.274;19.890;2022-09-29T05:14:01;13.73;;;4.93;;
66727;SDS011;53641;44.274;19.890;2022-09-29T05:16:27;13.43;;;4.45;;
66727;SDS011;53641;44.274;19.890;2022-09-29T05:18:53;17.75;;;4.93;;
66727;SDS011;53641;44.274;19.890;2022-09-29T05:21:19;9.07;;;4.85;;
66727;SDS011;53641;44.274;19.890;2022-09-29T05:23:44;7.10;;;4.25;;
66727;SDS011;53641;44.274;19.890;2022-09-29T05:26:11;11.65;;;5.00;;
66727;SDS011;53641;44.274;19.890;2022-09-29T05:28:44;12.57;;;4.35;;
66727;SDS011;53641;44.274;19.890;2022-09-29T05:31:11;15.25;;;5.03;;
66727;SDS011;53641;44.274;19.890;2022-09-29T05:33:38;19.40;;;5.80;;
66727;SDS011;53641;44.274;19.890;2022-09-29T05:36:04;10.23;;;5.20;;
66727;SDS011;53641;44.274;19.890;2022-09-29T05:38:31;11.98;;;4.28;;
66727;SDS011;53641;44.274;19.890;2022-09-29T05:40:57;12.50;;;5.03;;
66727;SDS011;53641;44.274;19.890;2022-09-29T05:43:23;9.88;;;4.85;;
66727;SDS011;53641;44.274;19.890;2022-09-29T05:45:49;8.45;;;4.57;;
66727;SDS011;53641;44.274;19.890;2022-09-29T05:48:15;11.13;;;5.95;;
66727;SDS011;53641;44.274;19.890;2022-09-29T05:50:42;15.95;;;5.20;;
66727;SDS011;53641;44.274;19.890;2022-09-29T05:53:08;12.20;;;5.20;;
66727;SDS011;53641;44.274;19.890;2022-09-29T05:55:35;16.30;;;5.55;;
66727;SDS011;53641;44.274;19.890;2022-09-29T05:58:01;13.65;;;5.38;;
66727;SDS011;53641;44.274;19.890;2022-09-29T06:00:27;11.27;;;6.03;;
66727;SDS011;53641;44.274;19.890;2022-09-29T06:02:53;14.52;;;6.05;;
66727;SDS011;53641;44.274;19.890;2022-09-29T06:05:21;16.60;;;5.80;;
66727;SDS011;53641;44.274;19.890;2022-09-29T06:07:47;15.73;;;5.82;;
66727;SDS011;53641;44.274;19.890;2022-09-29T06:10:13;28.98;;;7.70;;
66727;SDS011;53641;44.274;19.890;2022-09-29T06:12:39;15.00;;;6.97;;
66727;SDS011;53641;44.274;19.890;2022-09-29T06:15:05;15.77;;;7.28;;
66727;SDS011;53641;44.274;19.890;2022-09-29T06:17:31;17.75;;;7.88;;
66727;SDS011;53641;44.274;19.890;2022-09-29T06:19:58;25.25;;;7.95;;
66727;SDS011;53641;44.274;19.890;2022-09-29T06:22:25;19.95;;;8.00;;
66727;SDS011;53641;44.274;19.890;2022-09-29T06:24:51;19.02;;;7.18;;
66727;SDS011;53641;44.274;19.890;2022-09-29T06:27:18;15.60;;;6.15;;
66727;SDS011;53641;44.274;19.890;2022-09-29T06:29:44;13.77;;;5.97;;
66727;SDS011;53641;44.274;19.890;2022-09-29T06:32:10;17.60;;;7.20;;
66727;SDS011;53641;44.274;19.890;2022-09-29T06:34:36;13.52;;;6.68;;
66727;SDS011;53641;44.274;19.890;2022-09-29T06:37:21;18.55;;;6.75;;
66727;SDS011;53641;44.274;19.890;2022-09-29T06:40:01;15.88;;;7.22;;
66727;SDS011;53641;44.274;19.890;2022-09-29T06:42:28;15.23;;;6.78;;
66727;SDS011;53641;44.274;19.890;2022-09-29T06:44:54;15.85;;;7.82;;
66727;SDS011;53641;44.274;19.890;2022-09-29T06:47:20;20.80;;;6.88;;
66727;SDS011;53641;44.274;19.890;2022-09-29T06:49:46;20.55;;;7.78;;
66727;SDS011;53641;44.274;19.890;2022-09-29T06:52:12;24.75;;;8.68;;
66727;SDS011;53641;44.274;19.890;2022-09-29T06:54:38;22.85;;;9.55;;
66727;SDS011;53641;44.274;19.890;2022-09-29T06:57:04;27.95;;;11.48;;
66727;SDS011;53641;44.274;19.890;2022-09-29T06:59:30;23.60;;;11.93;;
66727;SDS011;53641;44.274;19.890;2022-09-29T07:01:55;27.38;;;11.20;;
66727;SDS011;53641;44.274;19.890;2022-09-29T07:04:21;20.55;;;10.35;;
66727;SDS011;53641;44.274;19.890;2022-09-29T07:06:47;19.95;;;10.52;;
66727;SDS011;53641;44.274;19.890;2022-09-29T07:09:13;26.50;;;12.05;;
66727;SDS011;53641;44.274;19.890;2022-09-29T07:11:41;33.95;;;13.43;;
66727;SDS011;53641;44.274;19.890;2022-09-29T07:14:17;29.10;;;14.07;;
66727;SDS011;53641;44.274;19.890;2022-09-29T07:16:46;17.33;;;9.45;;
66727;SDS011;53641;44.274;19.890;2022-09-29T07:19:13;17.08;;;10.13;;
66727;SDS011;53641;44.274;19.890;2022-09-29T07:21:40;21.90;;;9.55;;
66727;SDS011;53641;44.274;19.890;2022-09-29T07:24:06;20.92;;;10.63;;
66727;SDS011;53641;44.274;19.890;2022-09-29T07:26:33;26.05;;;11.70;;
66727;SDS011;53641;44.274;19.890;2022-09-29T07:28:59;29.85;;;11.48;;
66727;SDS011;53641;44.274;19.890;2022-09-29T07:31:25;26.52;;;11.80;;
66727;SDS011;53641;44.274;19.890;2022-09-29T07:33:50;26.25;;;10.88;;
66727;SDS011;53641;44.274;19.890;2022-09-29T07:36:18;28.75;;;11.10;;
66727;SDS011;53641;44.274;19.890;2022-09-29T07:38:45;25.35;;;11.10;;
66727;SDS011;53641;44.274;19.890;2022-09-29T07:41:18;27.80;;;11.30;;
66727;SDS011;53641;44.274;19.890;2022-09-29T07:43:45;23.77;;;11.52;;
66727;SDS011;53641;44.274;19.890;2022-09-29T07:46:11;29.98;;;10.15;;
66727;SDS011;53641;44.274;19.890;2022-09-29T07:48:43;23.35;;;9.85;;
66727;SDS011;53641;44.274;19.890;2022-09-29T07:51:13;28.13;;;10.75;;
66727;SDS011;53641;44.274;19.890;2022-09-29T07:53:43;22.55;;;10.82;;
66727;SDS011;53641;44.274;19.890;2022-09-29T07:56:13;40.28;;;11.68;;
66727;SDS011;53641;44.274;19.890;2022-09-29T07:58:42;35.27;;;11.83;;
66727;SDS011;53641;44.274;19.890;2022-09-29T08:01:09;24.55;;;11.05;;
66727;SDS011;53641;44.274;19.890;2022-09-29T08:03:38;26.10;;;11.63;;
66727;SDS011;53641;44.274;19.890;2022-09-29T08:06:06;21.30;;;11.05;;
66727;SDS011;53641;44.274;19.890;2022-09-29T08:08:36;27.00;;;10.82;;
66727;SDS011;53641;44.274;19.890;2022-09-29T08:11:06;24.70;;;11.45;;
66727;SDS011;53641;44.274;19.890;2022-09-29T08:13:33;24.63;;;12.07;;
66727;SDS011;53641;44.274;19.890;2022-09-29T08:16:02;22.50;;;11.50;;
66727;SDS011;53641;44.274;19.890;2022-09-29T08:18:29;29.90;;;10.88;;
66727;SDS011;53641;44.274;19.890;2022-09-29T08:20:56;33.33;;;11.75;;
66727;SDS011;53641;44.274;19.890;2022-09-29T08:23:23;29.33;;;12.93;;
66727;SDS011;53641;44.274;19.890;2022-09-29T08:25:49;21.50;;;12.48;;
66727;SDS011;53641;44.274;19.890;2022-09-29T08:28:23;28.23;;;13.50;;
66727;SDS011;53641;44.274;19.890;2022-09-29T08:30:48;24.73;;;12.48;;
66727;SDS011;53641;44.274;19.890;2022-09-29T08:33:17;28.17;;;11.07;;
66727;SDS011;53641;44.274;19.890;2022-09-29T08:35:43;22.73;;;10.02;;
66727;SDS011;53641;44.274;19.890;2022-09-29T08:38:09;27.17;;;11.00;;
66727;SDS011;53641;44.274;19.890;2022-09-29T08:40:34;23.48;;;11.13;;
66727;SDS011;53641;44.274;19.890;2022-09-29T08:43:05;23.65;;;10.50;;
66727;SDS011;53641;44.274;19.890;2022-09-29T08:45:42;22.48;;;8.77;;
66727;SDS011;53641;44.274;19.890;2022-09-29T08:48:14;22.15;;;8.80;;
66727;SDS011;53641;44.274;19.890;2022-09-29T08:50:46;19.25;;;8.35;;
66727;SDS011;53641;44.274;19.890;2022-09-29T08:55:44;24.38;;;8.52;;
66727;SDS011;53641;44.274;19.890;2022-09-29T08:58:17;18.55;;;6.47;;
66727;SDS011;53641;44.274;19.890;2022-09-29T09:01:02;19.08;;;6.35;;
66727;SDS011;53641;44.274;19.890;2022-09-29T09:03:55;20.25;;;6.50;;
66727;SDS011;53641;44.274;19.890;2022-09-29T09:06:52;18.33;;;5.35;;
66727;SDS011;53641;44.274;19.890;2022-09-29T09:12:48;13.32;;;5.70;;
66727;SDS011;53641;44.274;19.890;2022-09-29T09:15:45;17.52;;;5.32;;
66727;SDS011;53641;44.274;19.890;2022-09-29T09:18:32;24.83;;;6.03;;
66727;SDS011;53641;44.274;19.890;2022-09-29T09:21:17;24.63;;;7.18;;
66727;SDS011;53641;44.274;19.890;2022-09-29T09:23:54;19.77;;;6.32;;
66727;SDS011;53641;44.274;19.890;2022-09-29T09:26:32;21.92;;;6.60;;
66727;SDS011;53641;44.274;19.890;2022-09-29T09:29:23;19.33;;;6.90;;
66727;SDS011;53641;44.274;19.890;2022-09-29T09:32:03;14.40;;;5.82;;
66727;SDS011;53641;44.274;19.890;2022-09-29T09:34:34;12.98;;;4.82;;
66727;SDS011;53641;44.274;19.890;2022-09-29T09:37:09;16.40;;;4.53;;
66727;SDS011;53641;44.274;19.890;2022-09-29T09:40:21;12.20;;;4.07;;
66727;SDS011;53641;44.274;19.890;2022-09-29T09:42:31;8.98;;;3.60;;
66727;SDS011;53641;44.274;19.890;2022-09-29T09:47:35;13.07;;;3.95;;
66727;SDS011;53641;44.274;19.890;2022-09-29T09:50:14;12.93;;;4.50;;
66727;SDS011;53641;44.274;19.890;2022-09-29T09:52:46;11.50;;;3.88;;
66727;SDS011;53641;44.274;19.890;2022-09-29T09:55:26;16.52;;;4.45;;
66727;SDS011;53641;44.274;19.890;2022-09-29T09:58:09;8.90;;;4.22;;
66727;SDS011;53641;44.274;19.890;2022-09-29T10:00:56;10.25;;;3.78;;
66727;SDS011;53641;44.274;19.890;2022-09-29T10:03:26;10.18;;;3.72;;
66727;SDS011;53641;44.274;19.890;2022-09-29T10:05:52;11.68;;;4.40;;
66727;SDS011;53641;44.274;19.890;2022-09-29T10:08:26;13.68;;;3.78;;
66727;SDS011;53641;44.274;19.890;2022-09-29T10:10:55;14.65;;;4.97;;
66727;SDS011;53641;44.274;19.890;2022-09-29T10:13:23;13.27;;;3.60;;
66727;SDS011;53641;44.274;19.890;2022-09-29T10:16:05;12.18;;;3.38;;
66727;SDS011;53641;44.274;19.890;2022-09-29T10:18:41;5.25;;;3.20;;
66727;SDS011;53641;44.274;19.890;2022-09-29T10:21:44;10.88;;;4.47;;
66727;SDS011;53641;44.274;19.890;2022-09-29T10:24:09;8.90;;;3.28;;
66727;SDS011;53641;44.274;19.890;2022-09-29T10:26:46;8.13;;;3.00;;
66727;SDS011;53641;44.274;19.890;2022-09-29T10:29:47;8.63;;;2.70;;
66727;SDS011;53641;44.274;19.890;2022-09-29T10:32:05;11.30;;;4.22;;
66727;SDS011;53641;44.274;19.890;2022-09-29T10:34:34;4.68;;;3.17;;
66727;SDS011;53641;44.274;19.890;2022-09-29T10:37:04;9.02;;;3.38;;
66727;SDS011;53641;44.274;19.890;2022-09-29T10:39:43;7.97;;;3.08;;
66727;SDS011;53641;44.274;19.890;2022-09-29T10:42:20;8.88;;;2.92;;
66727;SDS011;53641;44.274;19.890;2022-09-29T10:44:54;8.20;;;2.83;;
66727;SDS011;53641;44.274;19.890;2022-09-29T10:47:34;4.78;;;1.45;;
66727;SDS011;53641;44.274;19.890;2022-09-29T10:50:15;4.13;;;1.75;;
66727;SDS011;53641;44.274;19.890;2022-09-29T10:55:14;4.25;;;1.65;;
66727;SDS011;53641;44.274;19.890;2022-09-29T10:58:36;3.25;;;1.20;;
66727;SDS011;53641;44.274;19.890;2022-09-29T11:01:09;3.60;;;1.48;;
66727;SDS011;53641;44.274;19.890;2022-09-29T11:03:38;4.88;;;1.65;;
66727;SDS011;53641;44.274;19.890;2022-09-29T11:06:10;6.95;;;1.30;;
66727;SDS011;53641;44.274;19.890;2022-09-29T11:09:01;4.78;;;1.90;;
66727;SDS011;53641;44.274;19.890;2022-09-29T11:11:39;5.18;;;1.13;;
66727;SDS011;53641;44.274;19.890;2022-09-29T11:14:30;7.72;;;2.20;;
66727;SDS011;53641;44.274;19.890;2022-09-29T11:17:29;6.00;;;2.20;;
66727;SDS011;53641;44.274;19.890;2022-09-29T11:19:57;5.85;;;1.88;;
66727;SDS011;53641;44.274;19.890;2022-09-29T11:22:42;7.18;;;1.40;;
66727;SDS011;53641;44.274;19.890;2022-09-29T11:25:29;5.60;;;1.70;;
66727;SDS011;53641;44.274;19.890;2022-09-29T11:31:15;4.65;;;1.90;;
66727;SDS011;53641;44.274;19.890;2022-09-29T11:34:15;6.68;;;1.80;;
66727;SDS011;53641;44.274;19.890;2022-09-29T11:37:00;1.65;;;0.75;;
66727;SDS011;53641;44.274;19.890;2022-09-29T11:39:43;3.85;;;1.65;;
66727;SDS011;53641;44.274;19.890;2022-09-29T11:43:44;5.05;;;1.40;;
66727;SDS011;53641;44.274;19.890;2022-09-29T11:45:21;5.20;;;1.67;;
66727;SDS011;53641;44.274;19.890;2022-09-29T11:48:05;6.60;;;1.45;;
66727;SDS011;53641;44.274;19.890;2022-09-29T11:51:09;4.95;;;1.17;;
66727;SDS011;53641;44.274;19.890;2022-09-29T11:53:53;4.25;;;1.52;;
66727;SDS011;53641;44.274;19.890;2022-09-29T11:56:39;2.92;;;1.35;;
66727;SDS011;53641;44.274;19.890;2022-09-29T11:59:23;6.82;;;1.60;;
66727;SDS011;53641;44.274;19.890;2022-09-29T12:02:26;6.53;;;1.05;;
66727;SDS011;53641;44.274;19.890;2022-09-29T12:05:04;7.15;;;1.80;;
66727;SDS011;53641;44.274;19.890;2022-09-29T12:10:52;2.70;;;0.90;;
66727;SDS011;53641;44.274;19.890;2022-09-29T12:13:16;5.82;;;1.38;;
66727;SDS011;53641;44.274;19.890;2022-09-29T12:16:00;3.63;;;1.02;;
66727;SDS011;53641;44.274;19.890;2022-09-29T12:18:39;4.95;;;1.52;;
66727;SDS011;53641;44.274;19.890;2022-09-29T12:21:12;6.78;;;1.30;;
66727;SDS011;53641;44.274;19.890;2022-09-29T12:23:41;7.03;;;1.17;;
66727;SDS011;53641;44.274;19.890;2022-09-29T12:26:09;8.98;;;1.60;;
66727;SDS011;53641;44.274;19.890;2022-09-29T12:28:43;4.00;;;1.10;;
66727;SDS011;53641;44.274;19.890;2022-09-29T12:31:26;2.85;;;1.08;;
66727;SDS011;53641;44.274;19.890;2022-09-29T12:33:56;4.18;;;0.80;;
66727;SDS011;53641;44.274;19.890;2022-09-29T12:36:43;3.38;;;0.90;;
66727;SDS011;53641;44.274;19.890;2022-09-29T12:42:31;6.47;;;1.38;;
66727;SDS011;53641;44.274;19.890;2022-09-29T12:45:33;2.25;;;0.90;;
66727;SDS011;53641;44.274;19.890;2022-09-29T12:48:16;1.70;;;0.82;;
66727;SDS011;53641;44.274;19.890;2022-09-29T12:51:12;7.15;;;1.30;;
66727;SDS011;53641;44.274;19.890;2022-09-29T12:54:08;3.17;;;1.20;;
66727;SDS011;53641;44.274;19.890;2022-09-29T12:56:54;3.08;;;0.85;;
66727;SDS011;53641;44.274;19.890;2022-09-29T12:59:34;8.88;;;0.80;;
66727;SDS011;53641;44.274;19.890;2022-09-29T13:02:22;3.03;;;1.00;;
66727;SDS011;53641;44.274;19.890;2022-09-29T13:06:01;1.38;;;0.80;;
66727;SDS011;53641;44.274;19.890;2022-09-29T13:08:13;3.58;;;0.80;;
66727;SDS011;53641;44.274;19.890;2022-09-29T13:11:00;4.15;;;0.95;;
66727;SDS011;53641;44.274;19.890;2022-09-29T13:13:44;6.15;;;1.38;;
66727;SDS011;53641;44.274;19.890;2022-09-29T13:16:25;3.72;;;0.80;;
66727;SDS011;53641;44.274;19.890;2022-09-29T13:19:24;8.80;;;1.70;;
66727;SDS011;53641;44.274;19.890;2022-09-29T13:22:22;2.92;;;0.95;;
66727;SDS011;53641;44.274;19.890;2022-09-29T13:25:06;4.80;;;0.80;;
66727;SDS011;53641;44.274;19.890;2022-09-29T13:27:41;2.03;;;0.90;;
66727;SDS011;53641;44.274;19.890;2022-09-29T13:30:16;4.00;;;1.30;;
66727;SDS011;53641;44.274;19.890;2022-09-29T13:32:45;4.53;;;0.77;;
66727;SDS011;53641;44.274;19.890;2022-09-29T13:35:14;3.03;;;0.90;;
66727;SDS011;53641;44.274;19.890;2022-09-29T13:37:44;3.35;;;0.70;;
66727;SDS011;53641;44.274;19.890;2022-09-29T13:40:17;1.90;;;0.65;;
66727;SDS011;53641;44.274;19.890;2022-09-29T13:42:45;2.25;;;1.00;;
66727;SDS011;53641;44.274;19.890;2022-09-29T13:45:35;2.47;;;1.17;;
66727;SDS011;53641;44.274;19.890;2022-09-29T13:48:01;3.58;;;0.80;;
66727;SDS011;53641;44.274;19.890;2022-09-29T13:50:48;4.75;;;1.00;;
66727;SDS011;53641;44.274;19.890;2022-09-29T13:53:27;2.75;;;1.00;;
66727;SDS011;53641;44.274;19.890;2022-09-29T13:58:57;3.92;;;1.25;;
66727;SDS011;53641;44.274;19.890;2022-09-29T14:01:34;5.93;;;1.65;;
66727;SDS011;53641;44.274;19.890;2022-09-29T14:04:41;4.10;;;1.00;;
66727;SDS011;53641;44.274;19.890;2022-09-29T14:07:08;9.85;;;1.20;;
66727;SDS011;53641;44.274;19.890;2022-09-29T14:09:38;8.90;;;1.80;;
66727;SDS011;53641;44.274;19.890;2022-09-29T14:12:08;8.10;;;1.30;;
66727;SDS011;53641;44.274;19.890;2022-09-29T14:14:42;6.47;;;1.20;;
66727;SDS011;53641;44.274;19.890;2022-09-29T14:17:13;2.53;;;0.98;;
66727;SDS011;53641;44.274;19.890;2022-09-29T14:20:02;7.75;;;1.25;;
66727;SDS011;53641;44.274;19.890;2022-09-29T14:22:50;4.10;;;1.02;;
66727;SDS011;53641;44.274;19.890;2022-09-29T14:25:26;8.32;;;1.25;;
66727;SDS011;53641;44.274;19.890;2022-09-29T14:28:00;3.88;;;1.17;;
66727;SDS011;53641;44.274;19.890;2022-09-29T14:30:38;4.05;;;1.20;;
66727;SDS011;53641;44.274;19.890;2022-09-29T14:33:12;4.55;;;1.45;;
66727;SDS011;53641;44.274;19.890;2022-09-29T14:35:48;3.88;;;1.48;;
66727;SDS011;53641;44.274;19.890;2022-09-29T14:38:19;3.05;;;0.90;;
66727;SDS011;53641;44.274;19.890;2022-09-29T14:40:52;2.93;;;1.17;;
66727;SDS011;53641;44.274;19.890;2022-09-29T14:43:19;6.15;;;1.20;;
66727;SDS011;53641;44.274;19.890;2022-09-29T14:46:06;5.68;;;1.08;;
66727;SDS011;53641;44.274;19.890;2022-09-29T14:51:26;4.53;;;1.20;;
66727;SDS011;53641;44.274;19.890;2022-09-29T14:52:51;4.32;;;1.98;;
66727;SDS011;53641;44.274;19.890;2022-09-29T14:55:29;2.47;;;1.27;;
66727;SDS011;53641;44.274;19.890;2022-09-29T14:58:07;3.05;;;0.90;;
66727;SDS011;53641;44.274;19.890;2022-09-29T15:00:50;4.55;;;1.30;;
66727;SDS011;53641;44.274;19.890;2022-09-29T15:03:25;2.45;;;1.20;;
66727;SDS011;53641;44.274;19.890;2022-09-29T15:06:16;3.25;;;1.00;;
66727;SDS011;53641;44.274;19.890;2022-09-29T15:08:42;6.47;;;1.40;;
66727;SDS011;53641;44.274;19.890;2022-09-29T15:11:24;4.72;;;1.10;;
66727;SDS011;53641;44.274;19.890;2022-09-29T15:13:56;3.05;;;1.15;;
66727;SDS011;53641;44.274;19.890;2022-09-29T15:16:28;4.53;;;1.10;;
66727;SDS011;53641;44.274;19.890;2022-09-29T15:19:15;5.10;;;1.20;;
66727;SDS011;53641;44.274;19.890;2022-09-29T15:21:54;3.25;;;1.20;;
66727;SDS011;53641;44.274;19.890;2022-09-29T15:24:35;3.95;;;1.15;;
66727;SDS011;53641;44.274;19.890;2022-09-29T15:27:12;3.42;;;1.58;;
66727;SDS011;53641;44.274;19.890;2022-09-29T15:29:39;6.70;;;1.38;;
66727;SDS011;53641;44.274;19.890;2022-09-29T15:32:18;5.10;;;1.40;;